Time;durP1;ratioP1;P1;durP2;ratioP2;P2;SDS_P1;SDS_P2;PMS_P1;PMS_P2;Temp;Humidity;BMP_temperature;BMP_pressure;BME280_temperature;BME280_humidity;BME280_pressure;Samples;Min_cycle;Max_cycle;Signal;HPM_P1;HPM_P2
2023/05/31 00:00:17;;;;;;;6.30;4.97;;;;;;;11.05;100.00;102430.50;4954829;29;20031;-94
2023/05/31 00:02:43;;;;;;;11.93;5.40;;;;;;;11.07;100.00;102425.72;4955634;28;20507;-96
2023/05/31 00:05:09;;;;;;;5.87;4.90;;;;;;;11.11;100.00;102428.81;4974909;28;20015;-95
2023/05/31 00:07:34;;;;;;;8.07;4.68;;;;;;;11.04;100.00;102427.00;4994198;28;20115;-94
2023/05/31 00:10:00;;;;;;;6.93;4.87;;;;;;;11.03;100.00;102429.91;4996697;28;20050;-94
2023/05/31 00:12:25;;;;;;;6.40;4.70;;;;;;;11.02;100.00;102422.91;4994742;28;20027;-95
2023/05/31 00:14:50;;;;;;;6.23;5.37;;;;;;;11.03;100.00;102438.78;4997216;28;20023;-93
2023/05/31 00:17:15;;;;;;;6.43;4.83;;;;;;;10.97;100.00;102428.09;4995723;28;20300;-94
2023/05/31 00:19:41;;;;;;;7.43;5.27;;;;;;;10.98;100.00;102427.88;4995856;28;20035;-94
2023/05/31 00:22:06;;;;;;;5.60;4.70;;;;;;;10.98;100.00;102432.44;4985232;28;20484;-94
2023/05/31 00:24:31;;;;;;;5.70;5.07;;;;;;;10.91;100.00;102425.25;4972963;28;20026;-96
2023/05/31 00:26:57;;;;;;;7.30;4.97;;;;;;;10.85;100.00;102417.28;4972509;28;20045;-95
2023/05/31 00:29:22;;;;;;;10.45;4.63;;;;;;;10.85;100.00;102430.69;4971751;28;20031;-94
2023/05/31 00:31:48;;;;;;;6.47;4.87;;;;;;;10.79;100.00;102424.34;4973069;28;20050;-96
2023/05/31 00:34:13;;;;;;;7.47;5.10;;;;;;;10.82;100.00;102425.75;4958412;28;20043;-95
2023/05/31 00:36:38;;;;;;;6.80;5.00;;;;;;;10.79;100.00;102429.72;4953345;28;20054;-95
2023/05/31 00:39:03;;;;;;;5.83;4.80;;;;;;;10.80;100.00;102431.34;4954021;29;20040;-96
2023/05/31 00:41:29;;;;;;;5.78;4.90;;;;;;;10.79;100.00;102426.19;4954086;29;20031;-95
2023/05/31 00:43:55;;;;;;;6.00;4.70;;;;;;;10.75;100.00;102429.34;4957386;28;20132;-96
2023/05/31 00:46:26;;;;;;;7.23;5.03;;;;;;;10.68;100.00;102433.94;4956358;28;20023;-96
2023/05/31 00:48:52;;;;;;;9.45;4.97;;;;;;;10.70;100.00;102434.53;4956792;28;20031;-95
2023/05/31 00:51:18;;;;;;;6.75;4.95;;;;;;;10.64;100.00;102435.41;4981574;28;20143;-96
2023/05/31 00:53:44;;;;;;;6.93;4.82;;;;;;;10.55;100.00;102424.13;4994995;28;20026;-95
2023/05/31 00:56:10;;;;;;;8.00;5.27;;;;;;;10.54;100.00;102422.47;4996060;28;20022;-94
2023/05/31 00:58:36;;;;;;;6.55;5.05;;;;;;;10.49;100.00;102426.88;4997073;28;20050;-95
2023/05/31 01:01:02;;;;;;;6.47;5.28;;;;;;;10.57;100.00;102442.69;4992712;28;20095;-95
2023/05/31 01:03:27;;;;;;;6.47;5.23;;;;;;;10.53;100.00;102431.56;4965909;29;20050;-93
2023/05/31 01:05:53;;;;;;;8.30;5.20;;;;;;;10.54;100.00;102441.25;4964832;28;20011;-94
2023/05/31 01:08:19;;;;;;;6.97;5.60;;;;;;;10.52;100.00;102434.47;4994872;28;20035;-95
2023/05/31 01:10:45;;;;;;;7.70;5.67;;;;;;;10.53;100.00;102436.91;4997530;28;20066;-94
2023/05/31 01:13:35;;;;;;;6.47;5.30;;;;;;;10.53;100.00;102438.78;4992228;28;20030;-94
2023/05/31 01:16:10;;;;;;;5.95;5.25;;;;;;;10.45;100.00;102429.97;4979983;28;20058;-95
2023/05/31 01:18:44;;;;;;;5.95;5.35;;;;;;;10.45;100.00;102438.00;4974647;28;20026;-96
2023/05/31 01:21:11;;;;;;;7.07;5.40;;;;;;;10.38;100.00;102431.91;4976902;28;20061;-96
2023/05/31 01:24:03;;;;;;;8.15;5.28;;;;;;;10.34;100.00;102433.31;4981830;28;20528;-95
2023/05/31 01:26:36;;;;;;;7.43;5.25;;;;;;;10.37;100.00;102443.63;4975992;28;20043;-95
2023/05/31 01:29:05;;;;;;;7.23;5.17;;;;;;;10.34;100.00;102438.69;4976453;28;20026;-94
2023/05/31 01:31:33;;;;;;;6.97;5.37;;;;;;;10.32;100.00;102440.75;4976856;28;20289;-95
2023/05/31 01:33:59;;;;;;;8.27;5.85;;;;;;;10.30;100.00;102430.28;4973853;28;20031;-95
2023/05/31 01:36:25;;;;;;;8.05;5.70;;;;;;;10.29;100.00;102427.78;4975592;28;20030;-96
2023/05/31 01:38:50;;;;;;;6.57;5.40;;;;;;;10.32;100.00;102434.59;4975867;28;20467;-94
2023/05/31 01:41:17;;;;;;;8.50;5.80;;;;;;;10.27;100.00;102429.88;4977405;28;20494;-95
2023/05/31 01:43:44;;;;;;;12.03;5.87;;;;;;;10.26;100.00;102425.53;4977048;28;20030;-95
2023/05/31 01:46:13;;;;;;;12.87;5.80;;;;;;;10.23;100.00;102434.00;4965858;28;20381;-95
2023/05/31 01:48:40;;;;;;;8.25;5.53;;;;;;;10.22;100.00;102421.66;4957088;29;20042;-96
2023/05/31 01:51:08;;;;;;;9.27;6.13;;;;;;;10.21;100.00;102423.50;4968954;28;20035;-95
2023/05/31 01:53:34;;;;;;;9.38;5.22;;;;;;;10.22;100.00;102419.81;4976787;28;20053;-93
2023/05/31 01:56:01;;;;;;;9.50;5.68;;;;;;;10.19;100.00;102419.41;4976923;28;20026;-94
2023/05/31 01:58:27;;;;;;;8.18;5.97;;;;;;;10.14;100.00;102417.38;4959501;28;20024;-94
2023/05/31 02:00:53;;;;;;;8.03;6.10;;;;;;;10.18;100.00;102413.22;4975027;28;20074;-94
2023/05/31 02:03:18;;;;;;;9.43;5.63;;;;;;;10.13;100.00;102410.41;4975666;28;20330;-94
2023/05/31 02:06:00;;;;;;;8.27;5.90;;;;;;;10.12;100.00;102412.25;4975087;28;20030;-95
2023/05/31 02:08:26;;;;;;;9.68;6.07;;;;;;;10.10;100.00;102408.94;4975396;28;20113;-95
2023/05/31 02:10:53;;;;;;;7.25;5.47;;;;;;;10.08;100.00;102418.25;4974408;28;20032;-95
2023/05/31 02:13:19;;;;;;;9.88;6.13;;;;;;;10.02;100.00;102422.63;4974964;28;20085;-94
2023/05/31 02:15:44;;;;;;;7.32;5.80;;;;;;;9.99;100.00;102406.97;4951618;29;20391;-95
2023/05/31 02:18:09;;;;;;;9.80;6.20;;;;;;;9.94;100.00;102406.78;4955436;29;20031;-95
2023/05/31 02:20:35;;;;;;;9.53;6.20;;;;;;;9.95;100.00;102403.06;4955806;29;20034;-96
2023/05/31 02:23:01;;;;;;;11.10;6.55;;;;;;;9.91;100.00;102402.69;4956714;28;20046;-95
2023/05/31 02:25:26;;;;;;;9.57;6.53;;;;;;;9.85;100.00;102399.03;4968964;28;20026;-95
2023/05/31 02:27:51;;;;;;;10.30;5.83;;;;;;;9.90;100.00;102406.41;4966379;28;20038;-96
2023/05/31 02:30:17;;;;;;;7.87;5.77;;;;;;;9.84;100.00;102408.09;4955770;28;20043;-95
2023/05/31 02:32:43;;;;;;;8.03;6.63;;;;;;;9.84;100.00;102405.41;4957857;28;20333;-95
2023/05/31 02:35:10;;;;;;;11.93;6.83;;;;;;;9.86;100.00;102402.50;4974568;28;20038;-95
2023/05/31 02:37:37;;;;;;;10.63;6.63;;;;;;;9.84;100.00;102401.88;4975157;28;20271;-95
2023/05/31 02:40:09;;;;;;;10.80;7.15;;;;;;;9.77;100.00;102401.94;4975496;28;20031;-95
2023/05/31 02:42:36;;;;;;;9.82;6.68;;;;;;;9.72;100.00;102399.06;4975556;28;20023;-95
2023/05/31 02:45:01;;;;;;;9.10;7.00;;;;;;;9.71;100.00;102405.44;4971702;28;20030;-96
2023/05/31 02:47:27;;;;;;;11.90;6.63;;;;;;;9.74;100.00;102405.03;4971716;28;20088;-96
2023/05/31 02:49:52;;;;;;;14.07;6.03;;;;;;;9.69;100.00;102407.50;4958795;28;20419;-96
2023/05/31 02:52:17;;;;;;;10.47;6.77;;;;;;;9.65;100.00;102404.44;4970153;28;20137;-96
2023/05/31 02:54:43;;;;;;;9.57;6.60;;;;;;;9.66;100.00;102405.28;4974182;28;20118;-95
2023/05/31 02:57:10;;;;;;;12.27;6.83;;;;;;;9.61;100.00;102405.09;4956461;28;20352;-96
2023/05/31 02:59:35;;;;;;;11.07;7.07;;;;;;;9.61;100.00;102411.25;4975298;28;20030;-95
2023/05/31 03:02:00;;;;;;;10.83;7.33;;;;;;;9.66;100.00;102416.00;4974011;28;20039;-95
2023/05/31 03:04:27;;;;;;;13.70;7.30;;;;;;;9.61;100.00;102407.78;4970667;28;20057;-94
2023/05/31 03:06:52;;;;;;;14.30;8.15;;;;;;;9.56;100.00;102411.09;4973995;28;20026;-95
2023/05/31 03:09:17;;;;;;;13.43;8.40;;;;;;;9.55;100.00;102415.59;4972972;28;20083;-96
2023/05/31 03:11:44;;;;;;;11.70;7.87;;;;;;;9.54;100.00;102411.28;4974289;28;20091;-95
2023/05/31 03:14:09;;;;;;;13.32;6.88;;;;;;;9.52;100.00;102410.66;4973554;28;20023;-96
2023/05/31 03:16:35;;;;;;;11.55;7.15;;;;;;;9.43;100.00;102411.97;4972757;28;20965;-96
2023/05/31 03:19:00;;;;;;;11.10;6.83;;;;;;;9.46;100.00;102410.69;4974623;28;20023;-96
2023/05/31 03:21:25;;;;;;;10.03;7.17;;;;;;;9.38;100.00;102409.09;4976456;28;20034;-95
2023/05/31 03:23:51;;;;;;;11.93;7.67;;;;;;;9.42;100.00;102412.97;4978576;28;20038;-95
2023/05/31 03:26:16;;;;;;;9.47;7.00;;;;;;;9.32;100.00;102399.22;4973730;28;20797;-96
2023/05/31 03:28:41;;;;;;;13.27;7.67;;;;;;;9.34;100.00;102403.34;4977873;28;20050;-96
2023/05/31 03:33:44;;;;;;;13.57;7.70;;;;;;;9.24;100.00;102386.91;5232795;23;20421;-93
2023/05/31 03:36:10;;;;;;;12.03;8.07;;;;;;;9.39;100.00;102402.69;4974288;28;20034;-96
2023/05/31 03:38:35;;;;;;;13.27;8.05;;;;;;;9.37;100.00;102410.13;4984738;28;20026;-95
2023/05/31 03:41:01;;;;;;;12.80;7.93;;;;;;;9.34;100.00;102400.66;5000155;28;20145;-96
2023/05/31 03:43:26;;;;;;;12.93;8.00;;;;;;;9.30;100.00;102390.59;5002107;28;20114;-96
2023/05/31 03:45:51;;;;;;;12.05;8.10;;;;;;;9.43;100.00;102408.44;5001608;28;20022;-94
2023/05/31 03:48:17;;;;;;;12.23;8.27;;;;;;;9.38;100.00;102399.22;4985591;28;20061;-94
2023/05/31 03:50:43;;;;;;;14.30;8.23;;;;;;;9.40;100.00;102412.38;4983644;28;20034;-93
2023/05/31 03:53:09;;;;;;;13.88;8.00;;;;;;;9.45;100.00;102404.53;4991956;28;20032;-93
2023/05/31 03:55:34;;;;;;;12.17;8.13;;;;;;;9.45;100.00;102403.72;4990391;28;20031;-93
2023/05/31 03:58:00;;;;;;;16.43;9.13;;;;;;;9.44;100.00;102394.88;4992675;28;20033;-94
2023/05/31 04:00:25;;;;;;;15.13;8.02;;;;;;;9.45;100.00;102398.34;4991754;28;20041;-94
2023/05/31 04:02:51;;;;;;;16.70;8.63;;;;;;;9.50;100.00;102411.94;4991736;28;20060;-94
2023/05/31 04:05:17;;;;;;;13.20;8.87;;;;;;;9.53;100.00;102414.19;4991382;28;20072;-93
2023/05/31 04:07:42;;;;;;;14.03;8.83;;;;;;;9.54;100.00;102405.13;4991862;28;20360;-95
2023/05/31 04:10:08;;;;;;;13.47;8.63;;;;;;;9.60;100.00;102409.63;4989548;28;20363;-93
2023/05/31 04:12:33;;;;;;;13.98;8.73;;;;;;;9.64;100.00;102413.50;4990059;28;20030;-93
2023/05/31 04:14:59;;;;;;;15.40;8.63;;;;;;;9.70;100.00;102411.84;4991346;28;20030;-94
2023/05/31 04:17:24;;;;;;;13.70;8.30;;;;;;;9.79;100.00;102409.75;4992665;28;20058;-94
2023/05/31 04:19:50;;;;;;;15.32;8.88;;;;;;;9.83;100.00;102405.59;4991685;28;20027;-94
2023/05/31 04:22:16;;;;;;;15.97;9.67;;;;;;;9.84;100.00;102408.09;4992875;28;20037;-93
2023/05/31 04:24:41;;;;;;;15.77;9.57;;;;;;;9.95;100.00;102408.44;5005745;28;20054;-94
2023/05/31 04:27:07;;;;;;;13.73;8.93;;;;;;;9.94;100.00;102404.94;5007178;28;20074;-94
2023/05/31 04:29:32;;;;;;;13.98;8.65;;;;;;;10.02;100.00;102419.94;4996262;28;20010;-93
2023/05/31 04:31:58;;;;;;;15.97;9.13;;;;;;;10.02;100.00;102411.06;5014309;28;20033;-93
2023/05/31 04:37:04;;;;;;;12.65;8.13;;;;;;;10.00;100.00;102398.72;5637915;23;20046;-96
2023/05/31 04:39:31;;;;;;;16.38;9.52;;;;;;;10.05;100.00;102400.72;4988620;28;20463;-96
2023/05/31 04:41:56;;;;;;;16.67;9.68;;;;;;;10.11;100.00;102402.56;4978687;28;20045;-96
2023/05/31 04:44:21;;;;;;;17.43;10.00;;;;;;;10.20;100.00;102400.44;4946809;29;20035;-96
2023/05/31 04:46:47;;;;;;;18.17;9.75;;;;;;;10.37;100.00;102406.09;4943117;29;20395;-96
2023/05/31 04:49:14;;;;;;;19.73;10.20;;;;;;;10.57;100.00;102391.75;4962742;29;20023;-96
2023/05/31 04:51:39;;;;;;;14.57;8.88;;;;;;;10.74;100.00;102389.31;4969208;28;20034;-95
2023/05/31 04:54:05;;;;;;;14.17;9.40;;;;;;;11.72;100.00;102410.13;4948464;28;20035;-96
2023/05/31 04:56:31;;;;;;;18.98;10.30;;;;;;;12.89;100.00;102418.69;4941092;29;20244;-95
2023/05/31 04:58:56;;;;;;;15.00;9.40;;;;;;;13.64;100.00;102413.56;4976915;28;20118;-95
2023/05/31 05:03:51;;;;;;;14.70;8.90;;;;;;;14.82;98.43;102413.94;5009534;28;20046;-95
2023/05/31 05:06:17;;;;;;;17.30;8.65;;;;;;;15.08;94.28;102398.94;5014172;28;20022;-96
2023/05/31 05:11:53;;;;;;;15.27;9.48;;;;;;;16.39;91.94;102431.69;5144530;23;20046;-96
2023/05/31 05:16:54;;;;;;;18.58;8.30;;;;;;;17.09;83.61;102439.75;5224973;23;20046;-96
2023/05/31 05:19:30;;;;;;;16.35;9.40;;;;;;;16.93;82.71;102404.44;5200148;23;20151;-95
2023/05/31 05:21:56;;;;;;;14.60;8.90;;;;;;;17.16;80.95;102413.25;5141218;23;20114;-96
2023/05/31 05:24:27;;;;;;;14.10;9.33;;;;;;;17.50;76.75;102414.75;4996187;28;20293;-96
2023/05/31 05:37:30;;;;;;;16.10;9.25;;;;;;;18.34;75.80;102430.09;4109099;23;20051;-96
2023/05/31 05:39:57;;;;;;;13.00;8.50;;;;;;;18.30;71.38;102432.53;4976460;28;20019;-96
2023/05/31 05:42:23;;;;;;;13.52;8.95;;;;;;;18.16;72.14;102434.97;4979378;28;20026;-95
2023/05/31 05:44:49;;;;;;;12.82;8.10;;;;;;;17.98;72.56;102425.47;4991138;28;20040;-95
2023/05/31 05:57:55;;;;;;;14.63;8.40;;;;;;;16.81;78.42;102429.00;5338755;23;20305;-96
2023/05/31 06:00:40;;;;;;;15.90;9.40;;;;;;;16.62;80.18;102435.91;4998861;28;20030;-95
2023/05/31 06:05:42;;;;;;;16.90;9.68;;;;;;;16.21;82.18;102422.88;5010476;23;20051;-96
2023/05/31 06:08:22;;;;;;;15.07;10.00;;;;;;;16.21;83.66;102431.00;5008260;28;20033;-96
2023/05/31 06:10:47;;;;;;;15.45;9.32;;;;;;;16.26;84.38;102422.09;4952628;28;20047;-96
2023/05/31 06:18:23;;;;;;;17.42;9.43;;;;;;;16.01;86.79;102424.31;5001435;23;20054;-96
2023/05/31 06:20:49;;;;;;;18.47;9.73;;;;;;;15.99;85.26;102450.00;5007684;28;20114;-94
2023/05/31 06:23:14;;;;;;;17.53;9.70;;;;;;;15.63;85.83;102425.25;4982646;28;20019;-89
2023/05/31 06:25:41;;;;;;;18.40;10.35;;;;;;;15.56;87.03;102439.75;4990296;28;20059;-93
2023/05/31 06:28:07;;;;;;;13.45;9.82;;;;;;;15.55;88.38;102448.13;4993789;28;20074;-95
2023/05/31 06:30:32;;;;;;;17.45;9.57;;;;;;;15.60;89.19;102453.59;5001000;28;20034;-91
2023/05/31 06:32:59;;;;;;;14.70;9.43;;;;;;;15.71;88.93;102451.81;4990628;28;20029;-92
2023/05/31 06:35:24;;;;;;;13.80;9.30;;;;;;;15.79;88.31;102451.38;4996289;28;20049;-89
2023/05/31 06:37:53;;;;;;;16.07;9.83;;;;;;;15.77;88.20;102453.50;4992356;28;20054;-92
2023/05/31 06:40:18;;;;;;;16.33;9.52;;;;;;;15.75;88.79;102448.38;4999030;28;20121;-93
2023/05/31 06:46:20;;;;;;;;;;;;;;;;;;;;;
2023/05/31 06:48:45;;;;;;;14.88;9.48;;;;;;;15.52;88.93;102427.81;4994749;28;20121;-89
2023/05/31 06:51:11;;;;;;;17.67;10.17;;;;;;;15.66;88.88;102443.66;4997008;28;20057;-95
2023/05/31 06:53:36;;;;;;;16.27;9.30;;;;;;;15.78;87.76;102457.84;4982799;28;20042;-92
2023/05/31 06:56:02;;;;;;;15.83;9.50;;;;;;;15.80;88.47;102455.72;4995998;28;20014;-93
2023/05/31 06:58:31;;;;;;;17.17;9.80;;;;;;;15.92;87.24;102463.72;5001141;28;20033;-95
2023/05/31 07:00:57;;;;;;;15.75;9.77;;;;;;;15.97;87.78;102462.94;5007293;28;20482;-95
2023/05/31 07:03:42;;;;;;;20.08;8.57;;;;;;;15.91;86.96;102445.84;4989393;28;20089;-95
2023/05/31 07:06:11;;;;;;;16.42;9.60;;;;;;;16.02;86.73;102446.78;5010724;28;20018;-95
2023/05/31 07:08:59;;;;;;;17.08;9.75;;;;;;;16.02;87.67;102442.19;5004084;28;20121;-96
2023/05/31 07:11:26;;;;;;;16.20;9.50;;;;;;;16.14;86.12;102438.50;5006790;28;20098;-96
2023/05/31 07:16:32;;;;;;;17.10;9.95;;;;;;;16.32;86.01;102442.72;5141573;23;20021;-94
2023/05/31 07:19:01;;;;;;;16.92;9.73;;;;;;;16.45;85.32;102428.75;5105150;23;20068;-96
2023/05/31 07:21:27;;;;;;;16.25;9.30;;;;;;;16.59;83.98;102445.38;5118169;23;20314;-92
2023/05/31 07:24:09;;;;;;;19.33;10.35;;;;;;;16.56;83.91;102421.53;5077912;23;20041;-96
2023/05/31 07:26:35;;;;;;;16.05;9.70;;;;;;;16.56;84.46;102418.03;4987163;28;20042;-96
2023/05/31 07:29:06;;;;;;;19.87;9.23;;;;;;;16.76;83.34;102423.59;4990071;28;20494;-94
2023/05/31 07:31:33;;;;;;;19.45;9.10;;;;;;;16.98;82.70;102436.16;4966645;28;20103;-95
2023/05/31 07:34:06;;;;;;;17.75;9.68;;;;;;;17.12;81.01;102439.22;4968132;28;20086;-96
2023/05/31 07:36:42;;;;;;;15.05;8.23;;;;;;;17.08;79.09;102430.00;4988569;28;20031;-94
2023/05/31 07:39:10;;;;;;;20.45;9.82;;;;;;;17.05;81.73;102436.75;4943635;28;20687;-92
2023/05/31 07:41:35;;;;;;;16.00;9.82;;;;;;;16.93;80.01;102420.69;4972666;28;20124;-93
2023/05/31 07:44:02;;;;;;;16.17;9.27;;;;;;;17.20;81.23;102436.03;4953969;28;20498;-92
2023/05/31 07:46:28;;;;;;;16.42;10.05;;;;;;;17.33;79.22;102429.31;4971952;28;20026;-92
2023/05/31 07:48:54;;;;;;;15.20;9.23;;;;;;;17.52;79.53;102429.66;4976125;28;20035;-92
2023/05/31 07:51:20;;;;;;;18.07;8.87;;;;;;;17.61;78.59;102440.00;4975251;28;20027;-92
2023/05/31 07:53:46;;;;;;;15.60;9.82;;;;;;;17.76;77.98;102431.06;4975292;28;20031;-93
2023/05/31 07:56:12;;;;;;;14.63;9.68;;;;;;;17.86;78.38;102431.09;4973272;28;20066;-93
2023/05/31 07:58:38;;;;;;;18.43;9.87;;;;;;;17.94;77.21;102433.28;4974941;28;20495;-94
2023/05/31 08:01:03;;;;;;;14.88;9.30;;;;;;;18.03;76.30;102432.78;4973514;28;20030;-92
2023/05/31 08:03:28;;;;;;;18.67;9.73;;;;;;;18.03;74.65;102430.06;4973907;28;20035;-92
2023/05/31 08:05:54;;;;;;;15.43;9.67;;;;;;;18.25;74.56;102421.66;4973209;28;20026;-93
2023/05/31 08:08:20;;;;;;;18.13;9.48;;;;;;;18.45;74.87;102426.28;4974347;28;20034;-91
2023/05/31 08:10:45;;;;;;;14.53;9.40;;;;;;;18.50;73.50;102414.63;4972977;28;20035;-92
2023/05/31 08:13:10;;;;;;;13.10;9.47;;;;;;;18.62;72.76;102412.41;4954824;29;20027;-92
2023/05/31 08:15:36;;;;;;;23.35;9.20;;;;;;;18.69;71.93;102415.69;4965604;28;20479;-92
2023/05/31 08:18:02;;;;;;;18.17;9.03;;;;;;;18.85;72.19;102416.44;4956463;28;20505;-91
2023/05/31 08:20:27;;;;;;;19.23;9.73;;;;;;;18.96;70.72;102417.25;4972119;28;20140;-92
2023/05/31 08:22:53;;;;;;;14.57;9.70;;;;;;;19.11;71.59;102416.41;4954324;28;20305;-93
2023/05/31 08:25:19;;;;;;;20.02;10.68;;;;;;;19.18;70.64;102422.34;4953548;29;20508;-93
2023/05/31 08:27:44;;;;;;;16.07;9.27;;;;;;;19.27;68.89;102422.56;4921549;28;1311487;-92
2023/05/31 08:30:11;;;;;;;16.73;8.75;;;;;;;19.24;70.04;102417.72;4957253;28;20037;-92
2023/05/31 08:32:37;;;;;;;14.33;8.17;;;;;;;19.42;68.41;102418.19;4955948;28;20427;-92
2023/05/31 08:35:02;;;;;;;19.93;9.40;;;;;;;19.63;69.67;102421.59;4974280;28;20681;-92
2023/05/31 08:37:28;;;;;;;17.25;8.48;;;;;;;19.66;65.90;102416.41;4973449;28;20031;-93
2023/05/31 08:39:53;;;;;;;18.00;8.93;;;;;;;19.74;66.36;102420.44;4975080;28;20031;-91
2023/05/31 08:42:25;;;;;;;16.50;9.50;;;;;;;19.96;68.26;102422.78;4972283;28;20042;-93
2023/05/31 08:44:51;;;;;;;15.00;10.15;;;;;;;20.06;65.14;102419.19;4972251;28;20508;-91
2023/05/31 08:47:32;;;;;;;15.63;8.80;;;;;;;20.12;65.93;102415.28;4972950;28;20030;-92
2023/05/31 08:50:00;;;;;;;17.47;9.17;;;;;;;20.25;65.40;102411.13;4973903;28;20035;-92
2023/05/31 08:52:25;;;;;;;17.42;8.35;;;;;;;20.39;65.05;102394.94;4974410;28;20486;-92
2023/05/31 08:54:53;;;;;;;20.38;9.70;;;;;;;20.53;62.30;102399.69;4974301;28;20027;-91
2023/05/31 08:57:19;;;;;;;15.73;8.45;;;;;;;20.61;61.24;102398.25;4984286;28;20208;-89
2023/05/31 08:59:45;;;;;;;19.35;8.90;;;;;;;20.71;61.68;102401.69;4981885;28;20023;-91
2023/05/31 09:02:12;;;;;;;18.85;8.57;;;;;;;20.77;61.91;102394.31;4981282;28;20030;-91
2023/05/31 09:04:40;;;;;;;13.32;8.35;;;;;;;20.98;61.83;102403.06;4983071;28;20071;-90
2023/05/31 09:07:05;;;;;;;12.90;7.53;;;;;;;21.21;61.16;102391.63;4985283;28;20022;-91
2023/05/31 09:09:30;;;;;;;14.50;8.27;;;;;;;21.23;58.59;102392.94;4983896;28;20377;-93
2023/05/31 09:11:56;;;;;;;18.80;7.90;;;;;;;21.37;57.46;102394.94;4973987;28;20117;-92
2023/05/31 09:14:23;;;;;;;12.67;7.87;;;;;;;21.35;56.44;102397.97;4974499;28;20533;-93
2023/05/31 09:16:51;;;;;;;16.92;7.45;;;;;;;21.41;56.05;102395.97;4972893;28;20034;-93
2023/05/31 09:19:16;;;;;;;14.25;7.40;;;;;;;21.63;56.52;102398.97;4973953;28;20023;-94
2023/05/31 09:21:43;;;;;;;12.90;8.10;;;;;;;21.70;57.88;102392.34;4977941;28;20074;-94
2023/05/31 09:24:10;;;;;;;15.95;8.07;;;;;;;21.80;55.24;102392.16;4981199;28;20525;-93
2023/05/31 09:26:45;;;;;;;11.15;7.20;;;;;;;21.86;55.90;102385.53;4982139;28;20027;-92
2023/05/31 09:29:11;;;;;;;17.13;7.90;;;;;;;22.05;53.84;102381.97;4993278;28;20058;-90
2023/05/31 09:31:36;;;;;;;13.00;7.27;;;;;;;22.10;53.52;102384.59;4992568;28;20034;-89
2023/05/31 09:34:01;;;;;;;15.97;7.50;;;;;;;22.07;53.68;102379.75;4995536;28;20023;-90
2023/05/31 09:36:28;;;;;;;9.23;6.40;;;;;;;22.24;53.70;102379.16;4998943;28;20019;-91
2023/05/31 09:39:02;;;;;;;17.17;7.00;;;;;;;22.47;53.75;102374.66;4998101;28;20051;-91
2023/05/31 09:41:28;;;;;;;13.73;7.13;;;;;;;22.43;50.45;102370.94;4943059;29;20111;-93
2023/05/31 09:43:55;;;;;;;12.45;6.38;;;;;;;22.62;51.89;102361.84;4977658;28;20119;-94
2023/05/31 09:46:21;;;;;;;14.80;6.33;;;;;;;22.78;50.96;102360.44;4999405;28;20022;-96
2023/05/31 09:49:05;;;;;;;11.40;6.13;;;;;;;22.90;51.47;102357.19;4989782;28;20027;-95
2023/05/31 09:51:32;;;;;;;13.02;6.95;;;;;;;22.98;49.61;102355.66;4982387;28;20026;-94
2023/05/31 09:54:01;;;;;;;13.90;6.60;;;;;;;23.12;49.26;102359.19;4985148;28;20034;-93
2023/05/31 09:56:27;;;;;;;13.18;6.85;;;;;;;23.02;49.48;102348.44;4964006;28;20023;-95
2023/05/31 09:58:56;;;;;;;15.25;7.22;;;;;;;23.03;50.64;102350.06;4970211;28;20119;-94
2023/05/31 10:01:21;;;;;;;13.35;6.38;;;;;;;23.22;49.08;102362.81;4966578;28;20023;-92
2023/05/31 10:03:49;;;;;;;13.80;6.93;;;;;;;23.11;48.83;102360.28;4963943;28;20065;-95
2023/05/31 10:06:17;;;;;;;14.35;6.53;;;;;;;23.10;48.71;102349.66;4972562;28;20015;-96
2023/05/31 10:08:43;;;;;;;11.35;5.70;;;;;;;23.12;48.17;102350.16;4976057;28;20027;-96
2023/05/31 10:11:12;;;;;;;13.57;5.70;;;;;;;23.40;49.31;102359.13;4976403;28;20279;-96
2023/05/31 10:13:42;;;;;;;10.75;5.40;;;;;;;23.46;46.90;102350.81;4989728;28;20031;-96
2023/05/31 10:16:09;;;;;;;10.48;5.80;;;;;;;23.47;45.85;102352.44;4991297;28;20050;-96
2023/05/31 10:18:40;;;;;;;10.48;4.95;;;;;;;23.75;47.06;102353.91;4993432;28;20578;-96
2023/05/31 10:28:56;;;;;;;11.25;5.00;;;;;;;24.17;44.87;102341.97;3404787;23;20050;-91
2023/05/31 10:31:40;;;;;;;9.95;5.22;;;;;;;24.27;44.06;102327.19;5004606;28;20026;-94
2023/05/31 10:34:20;;;;;;;7.72;4.53;;;;;;;24.41;43.48;102325.16;5012758;28;20413;-93
2023/05/31 10:36:46;;;;;;;10.52;4.03;;;;;;;24.41;41.91;102325.16;5014516;28;20569;-93
2023/05/31 10:39:31;;;;;;;10.20;3.80;;;;;;;24.53;42.80;102326.50;5002984;28;20031;-95
2023/05/31 10:42:18;;;;;;;11.00;3.90;;;;;;;24.53;42.26;102319.06;4991849;28;20038;-93
2023/05/31 10:44:56;;;;;;;7.22;4.28;;;;;;;24.58;41.45;102309.91;4976415;28;20066;-90
2023/05/31 10:47:32;;;;;;;9.27;3.97;;;;;;;24.64;41.85;102301.22;4974636;28;20038;-90
2023/05/31 10:50:01;;;;;;;6.63;3.90;;;;;;;24.67;41.81;102293.47;4974094;28;20278;-90
2023/05/31 10:52:29;;;;;;;6.20;3.88;;;;;;;24.74;41.35;102302.06;4973640;28;20466;-90
2023/05/31 10:55:15;;;;;;;8.35;3.75;;;;;;;25.00;41.64;102295.84;4975295;28;20034;-92
2023/05/31 10:57:41;;;;;;;9.75;4.30;;;;;;;25.08;40.92;102303.25;4974511;28;20022;-91
2023/05/31 11:00:08;;;;;;;9.35;4.68;;;;;;;24.95;40.51;102296.78;4975057;28;20383;-91
2023/05/31 11:02:33;;;;;;;13.93;4.30;;;;;;;25.00;42.16;102298.56;4958553;28;20394;-92
2023/05/31 11:05:18;;;;;;;8.87;3.80;;;;;;;25.05;41.24;102301.97;4973198;28;20077;-91
2023/05/31 11:07:43;;;;;;;7.57;3.75;;;;;;;25.05;38.61;102295.66;4957413;28;20173;-91
2023/05/31 11:10:10;;;;;;;8.07;3.70;;;;;;;25.27;38.48;102285.66;4975438;28;20059;-93
2023/05/31 11:12:37;;;;;;;7.20;3.22;;;;;;;25.33;38.50;102298.09;4976596;28;20032;-92
2023/05/31 11:15:04;;;;;;;10.85;3.72;;;;;;;25.31;38.51;102283.88;4975540;28;20026;-93
2023/05/31 11:17:38;;;;;;;11.40;4.10;;;;;;;25.44;37.50;102287.63;4974645;28;20037;-93
2023/05/31 11:20:04;;;;;;;14.35;3.53;;;;;;;25.40;38.59;102277.25;4967285;28;20019;-93
2023/05/31 11:22:30;;;;;;;9.93;3.30;;;;;;;25.57;38.42;102286.63;4986032;28;20042;-91
2023/05/31 11:24:59;;;;;;;11.07;3.47;;;;;;;25.61;37.45;102293.06;4984931;28;20026;-92
2023/05/31 11:27:39;;;;;;;10.20;3.47;;;;;;;25.49;38.40;102280.03;4957308;28;20065;-93
2023/05/31 11:30:09;;;;;;;8.93;3.72;;;;;;;25.35;38.09;102282.91;4974761;28;20054;-91
2023/05/31 11:32:34;;;;;;;8.55;3.28;;;;;;;25.36;36.50;102291.97;4982185;28;20057;-92
2023/05/31 11:35:06;;;;;;;8.47;3.70;;;;;;;25.33;37.06;102287.91;4983397;28;20098;-93
2023/05/31 11:37:34;;;;;;;7.72;3.85;;;;;;;25.61;37.87;102282.09;4981027;28;20031;-92
2023/05/31 11:40:00;;;;;;;8.82;3.60;;;;;;;25.74;38.10;102285.78;4980689;28;20689;-92
2023/05/31 11:42:30;;;;;;;7.88;3.30;;;;;;;25.98;38.53;102271.50;4976858;28;20456;-91
2023/05/31 11:44:56;;;;;;;10.23;3.43;;;;;;;25.89;37.59;102275.41;4973372;28;20036;-92
2023/05/31 11:47:31;;;;;;;7.30;3.67;;;;;;;25.93;38.45;102277.16;4973240;28;20293;-93
2023/05/31 11:49:57;;;;;;;9.18;4.20;;;;;;;25.78;37.13;102272.22;4974021;28;20035;-92
2023/05/31 11:52:23;;;;;;;12.03;4.27;;;;;;;25.85;37.51;102273.31;4974261;28;20030;-93
2023/05/31 11:54:48;;;;;;;11.90;4.07;;;;;;;25.81;37.49;102264.13;4973072;28;20058;-92
2023/05/31 11:57:16;;;;;;;9.20;3.80;;;;;;;25.71;37.79;102267.22;4963850;28;20019;-91
2023/05/31 11:59:42;;;;;;;13.57;3.40;;;;;;;25.87;38.38;102266.69;4953907;29;20023;-91
2023/05/31 12:02:09;;;;;;;7.20;3.50;;;;;;;25.94;37.50;102256.81;4955073;28;20063;-92
2023/05/31 12:04:39;;;;;;;9.98;4.32;;;;;;;25.92;37.34;102266.50;4954307;29;20054;-91
2023/05/31 12:07:10;;;;;;;7.25;4.07;;;;;;;25.98;37.29;102256.94;4962408;28;20022;-92
2023/05/31 12:09:35;;;;;;;9.00;3.80;;;;;;;26.11;38.07;102247.69;4973256;28;20054;-91
2023/05/31 12:12:03;;;;;;;10.03;4.10;;;;;;;26.15;37.89;102245.91;4972301;28;20113;-91
2023/05/31 12:14:29;;;;;;;7.18;4.00;;;;;;;26.25;37.45;102235.69;4972308;28;20022;-92
2023/05/31 12:16:54;;;;;;;9.88;4.30;;;;;;;26.22;36.85;102247.34;4972147;28;20086;-92